Mequon, WI

3:32 PM CDT on September 03, 2015 (GMT -0500)
Milwaukee River & Donges Bay Rd. | | Change Station
CLOSE
Current Station
Personal Weather Station
Location: Mequon, WI
Elevation: 649 ft
Nearby Weather Stations

Elev 649 ft 43.20 °N, 87.97 °W | Updated 2 seconds ago

Mostly Cloudy
Mostly Cloudy
78.5 °F
Feels Like 81 °F
N
0.0
Wind Variable Wind from NE

Today
High -- | Low -- °F
--% Chance of Precip.
Yesterday
High -- | Low -- °F
Precip. -- in
6:17 AM 7:23 PM
Waning Gibbous, 67% visible
Pressure 29.91 in
Visibility 10.0 miles
Clouds Scattered Clouds 3100 ft
Scattered Clouds 4400 ft
Mostly Cloudy 5500 ft
Heat Index 81 °F
Dew Point 72 °F
Humidity 80%
Rainfall 0.00 in
Snow Depth Not available.
UV 4 out of 12
Pollen 4.10 out of 12
Air Quality Not available.
Flu Activity Not available.
METAR KMWC 031945Z 00000KT 10SM SCT031 SCT044 BKN055 27/20 A2991
Pressure 29.91 in
Visibility 10.0 miles
Clouds Scattered Clouds 3100 ft
Scattered Clouds 4400 ft
Mostly Cloudy 5500 ft
Heat Index 81 °F
Dew Point 72 °F
Humidity 80%
Rainfall 0.00 in
Snow Depth Not available.
UV 4 out of 12
Pollen 4.10 out of 12
Air Quality Not available.
Flu Activity Not available.
METAR KMWC 031945Z 00000KT 10SM SCT031 SCT044 BKN055 27/20 A2991

10-Day Weather Forecast

×

Almanac

Astronomy

Sep. 03, 2015 Rise Set
Actual Time
Civil Twilight
Nautical Twilight
Astronomical Twilight
Moon
Length of Visible Light
Length of Day
Tomorrow will be .
, % of the Moon is Illuminated

Today's Extremes

State Highs State Lows

Community

WunderPhotos

Upload Photos

1,852,032 photos uploaded!

WunderBlogs® & News

Nearby

Air Quality

  Air Quality AQ Index Pollutant
Not available.

Snow Depth

Station Depth Elevation

Earthquake Activity

City Distance Mag. Time & Date
Minimum magnitude displayed is 2.5.

Coastal Water Temperatures

Place Temperature

Stations

Nearby Weather Stations

Station Location Temp. Windchill Dew Point Humidity Wind Precip. Elev Updated Type